• Join FlightAware (Why Join?)
  • Login
  • US Flag 
02:59AM EDT


 

Airport Tracker/Info


-or-


 

Live Flight TrackerFlight Track Log ✈ AWI3551 ✈ 24-Jun-2013 ✈ KBUF - KPHL

Flight Track Log - Related Links

Times and Time Zones

All times are in EDT time to prevent confusion due to time zone crossing. See the AWI3551 flight status page for this flight to view local times or setup timezone preferences in your user account.

Time Position Orientation Groundspeed Altitude Reporting Facility
EDT Latitude Longitude Course Direction KTS MPH feet Rate Location/Type
05:40AM 42.9333 -78.7500 174° South 152 175 1,500  Level Buffalo TRACON
05:41AM 42.8336 -78.7683 188° South 243 280 4,400 1,740 Climbing Cleveland Center
05:42AM 42.6114 -78.6823 172° South  Level FlightAware Approximate
05:42AM 42.7606 -78.7536 172° South 255 293 6,200  Level Cleveland Center
05:43AM 42.5179 -78.6641 173° South  Level FlightAware Approximate
05:43AM 42.6956 -78.7414 172° South 262 302 8,500  Level Cleveland Center
05:44AM 42.4240 -78.6500 180° South  Level FlightAware Approximate
05:44AM 42.6100 -78.7214 170° South 274 315 10,300  Level Cleveland Center
05:45AM 42.3298 -78.6447 174° South  Level FlightAware Approximate
05:45AM 42.5261 -78.7039 171° South 279 321 11,700  Level Cleveland Center
05:46AM 42.4364 -78.6869 172° South 308 354 13,600 1,560 Climbing Cleveland Center
05:47AM 42.3381 -78.6675 172° South 335 386 14,900 1,860 Climbing Cleveland Center
05:48AM 42.2397 -78.6508 173° South 358 412 17,400 2,280 Climbing Cleveland Center
05:49AM 42.1581 -78.6281 168° South 349 402 19,500 1,500 Climbing Cleveland Center
05:50AM 42.0706 -78.6253 179° South 330 380 20,500 720 Climbing Cleveland Center
05:51AM 41.9767 -78.6253 180° South 330 380 21,000 240 Climbing Cleveland Center
05:52AM 41.8683 -78.6231 179° South 355 409 21,000 900 Level Cleveland Center
05:53AM 41.7617 -78.6039 172° South 378 435 22,800 1,920 Climbing Cleveland Center
05:54AM 41.6750 -78.5428 152° Southeast 367 422 24,900 1,080 Climbing Cleveland Center
05:55AM 41.5864 -78.4761 151° Southeast 362 417 25,000  Climbing Cleveland Center
05:58AM 41.3789 -78.3253 151° Southeast 354 407 25,000  Level New York Center
05:59AM 41.2953 -78.2633 151° Southeast 354 407 25,000  Level New York Center
06:00AM 41.2075 -78.2011 152° Southeast 354 407 25,000  Level New York Center
06:01AM 41.1197 -78.1392 152° Southeast 354 407 25,000  Level New York Center
06:02AM 41.0342 -78.0747 150° Southeast 354 407 25,000  Level New York Center
06:03AM 40.9461 -78.0158 153° Southeast 354 407 25,000 -420 Level New York Center
06:04AM 40.8722 -77.9283 138° Southeast 354 407 24,200 -840 Descending New York Center
06:05AM 40.8036 -77.8197 130° Southeast 370 426 23,400 -840 Descending New York Center
06:06AM 40.7347 -77.7169 131° Southeast 370 426 22,600 -840 Descending New York Center
06:07AM 40.6675 -77.6169 132° Southeast 370 426 21,800 -900 Descending New York Center
06:08AM 40.6042 -77.5206 131° Southeast 364 419 20,900 -960 Descending New York Center
06:09AM 40.5522 -77.4061 121° Southeast 364 419 19,900 -1,080 Descending New York Center
06:10AM 40.5031 -77.2811 117° Southeast 375 432 18,800 -960 Descending New York Center
06:11AM 40.4556 -77.1567 117° Southeast 385 443 18,000 -420 Descending New York Center
06:12AM 40.4119 -77.0381 116° Southeast 373 429 18,000  Level New York Center
06:13AM 40.3697 -76.9306 117° Southeast 363 418 18,000 -540 Level New York Center
06:14AM 40.3200 -76.8011 117° Southeast 363 418 17,000 -1,200 Descending New York Center
06:15AM 40.2756 -76.6911 118° Southeast 358 412 15,700 -1,380 Descending New York Center
06:16AM 40.2331 -76.5814 117° Southeast 348 400 14,400 -1,260 Descending New York Center
06:17AM 40.1942 -76.4831 117° Southeast 337 388 13,200 -1,080 Descending New York Center
06:18AM 40.1553 -76.3792 116° Southeast 330 380 12,300 -960 Descending New York Center
06:19AM 40.1208 -76.2678 112° Southeast 308 354 11,400 -900 Descending New York Center
06:20AM 40.1117 -76.1531 96° East 308 354 10,600 -780 Descending New York Center
06:21AM 40.1036 -76.0547 96° East 308 354 9,900 -780 Descending New York Center
06:22AM 40.0978 -75.9483 94° East 303 349 9,100 -900 Descending New York Center
06:23AM 40.0864 -75.8308 97° East 298 343 8,200 -540 Descending New York Center
06:24AM 40.0783 -75.7244 96° East 293 337 8,100 -60 Descending New York Center
06:25AM 40.0739 -75.6292 93° East 274 315 8,100  Level New York Center
06:26AM 40.0694 -75.5367 94° East 262 302 8,100  Level New York Center
06:27AM 40.0933 -75.4569 69° East 231 266 8,100  Level New York Center
06:28AM 40.1133 -75.3769 72° East 231 266 8,100  Level New York Center
06:29AM 40.1328 -75.3047 71° East 231 266 8,100 -120 Level New York Center
06:30AM 40.1081 -75.2436 118° Southeast 199 229 7,900 -480 Descending New York Center
06:31AM 40.0439 -75.2286 170° South 172 198 7,200 -660 Descending New York Center
06:32AM 39.9900 -75.2197 173° South 209 241 6,600 -480 Descending New York Center
06:32AM 39.9667 -75.1833 130° Southeast 220 253 6,500 -300 Descending Philadelphia TRACON
06:33AM 39.9833 -75.1000 75° East 221 254 6,200 -300 Descending Philadelphia TRACON
06:34AM 40.0000 -75.0333 72° East 198 228 6,000 -300 Descending Philadelphia TRACON
06:35AM 40.0167 -74.9667 72° East 214 246 5,600 -300 Descending Philadelphia TRACON
06:36AM 40.0167 -74.9000 90° East 197 227 5,400 -300 Descending Philadelphia TRACON
06:37AM 39.9833 -74.8500 131° Southeast 212 244 5,100 -420 Descending Philadelphia TRACON
06:38AM 39.9333 -74.9000 217° Southwest 172 198 4,500 -480 Descending Philadelphia TRACON
06:39AM 39.9333 -74.9500 270° West 175 201 4,200 -720 Descending Philadelphia TRACON
06:40AM 39.9167 -75.0167 252° West 175 201 3,100 -960 Descending Philadelphia TRACON